Time;durP1;ratioP1;P1;durP2;ratioP2;P2;SDS_P1;SDS_P2;PMS_P1;PMS_P2;Temp;Humidity;BMP_temperature;BMP_pressure;BME280_temperature;BME280_humidity;BME280_pressure;Samples;Min_cycle;Max_cycle;Signal;HPM_P1;HPM_P2
2022/05/27 00:01:03;;;;;;;7.20;6.60;;;;;;;;;;5073608;28;20097;-67
2022/05/27 00:03:29;;;;;;;5.65;5.25;;;;;;;;;;5091736;28;20074;-67
2022/05/27 00:05:55;;;;;;;7.50;6.90;;;;;;;;;;5091024;28;20071;-65
2022/05/27 00:08:22;;;;;;;3.92;3.63;;;;;;;;;;5091647;28;20407;-65
2022/05/27 00:10:49;;;;;;;3.30;3.03;;;;;;;;;;5091294;28;20147;-66
2022/05/27 00:13:15;;;;;;;4.15;3.47;;;;;;;;;;5091393;28;20028;-66
2022/05/27 00:15:41;;;;;;;6.25;3.53;;;;;;;;;;5073213;28;20070;-65
2022/05/27 00:18:07;;;;;;;5.40;3.10;;;;;;;;;;5073424;28;20509;-65
2022/05/27 00:20:33;;;;;;;6.40;3.60;;;;;;;;;;5091150;28;20032;-67
2022/05/27 00:23:00;;;;;;;3.78;3.58;;;;;;;;;;5090156;28;20059;-65
2022/05/27 00:25:25;;;;;;;3.53;3.28;;;;;;;;;;5090940;28;20050;-66
2022/05/27 00:27:52;;;;;;;3.97;3.78;;;;;;;;;;5090910;28;20028;-65
2022/05/27 00:30:18;;;;;;;4.53;4.15;;;;;;;;;;5090926;28;20036;-65
2022/05/27 00:32:44;;;;;;;3.85;3.55;;;;;;;;;;5090932;28;20032;-66
2022/05/27 00:35:10;;;;;;;4.43;4.18;;;;;;;;;;5056110;28;20032;-67
2022/05/27 00:37:36;;;;;;;6.80;4.38;;;;;;;;;;5090691;28;20040;-66
2022/05/27 00:40:02;;;;;;;7.40;4.57;;;;;;;;;;5072720;28;20035;-66
2022/05/27 00:42:28;;;;;;;6.30;5.55;;;;;;;;;;5091008;28;20127;-65
2022/05/27 00:44:54;;;;;;;7.88;5.43;;;;;;;;;;5090024;28;20575;-68
2022/05/27 00:47:21;;;;;;;5.38;5.07;;;;;;;;;;5090698;28;20503;-65
2022/05/27 00:49:54;;;;;;;8.40;7.70;;;;;;;;;;5090462;28;20023;-67
2022/05/27 00:52:20;;;;;;;8.95;8.23;;;;;;;;;;5090958;28;20036;-66
2022/05/27 00:54:46;;;;;;;8.75;8.05;;;;;;;;;;5090297;28;20096;-67
2022/05/27 00:57:14;;;;;;;9.32;8.63;;;;;;;;;;5090688;28;20068;-65
2022/05/27 00:59:59;;;;;;;7.80;7.20;;;;;;;;;;5071985;28;20411;-67
2022/05/27 01:02:25;;;;;;;8.18;7.43;;;;;;;;;;5055791;28;20036;-64
2022/05/27 01:04:51;;;;;;;7.50;6.85;;;;;;;;;;5071929;28;20028;-67
2022/05/27 01:07:17;;;;;;;7.47;6.97;;;;;;;;;;5090466;28;20062;-67
2022/05/27 01:09:43;;;;;;;6.43;5.88;;;;;;;;;;5090180;28;20079;-66
2022/05/27 01:12:28;;;;;;;5.35;4.95;;;;;;;;;;5072159;28;20127;-66
2022/05/27 01:15:13;;;;;;;7.47;6.88;;;;;;;;;;5089918;28;20515;-66
2022/05/27 01:17:38;;;;;;;5.40;5.00;;;;;;;;;;5090098;28;20047;-66
2022/05/27 01:20:23;;;;;;;4.50;4.20;;;;;;;;;;5090081;28;20525;-66
2022/05/27 01:22:52;;;;;;;4.75;4.22;;;;;;;;;;5089928;28;20144;-66
2022/05/27 01:25:18;;;;;;;4.60;4.30;;;;;;;;;;5089987;28;20161;-66
2022/05/27 01:27:49;;;;;;;3.00;2.80;;;;;;;;;;5088572;28;20169;-65
2022/05/27 01:30:15;;;;;;;4.65;4.28;;;;;;;;;;5071965;28;20499;-66
2022/05/27 01:32:59;;;;;;;3.17;2.88;;;;;;;;;;5089860;28;20032;-69
2022/05/27 01:35:32;;;;;;;3.92;3.60;;;;;;;;;;5089910;28;20055;-65
2022/05/27 01:38:01;;;;;;;2.28;2.17;;;;;;;;;;5089268;28;20036;-65
2022/05/27 01:40:29;;;;;;;3.47;3.22;;;;;;;;;;5089850;28;20028;-66
2022/05/27 01:43:01;;;;;;;3.60;3.40;;;;;;;;;;5089707;28;20055;-67
2022/05/27 01:45:40;;;;;;;2.70;2.60;;;;;;;;;;5088406;28;20063;-66
2022/05/27 01:48:10;;;;;;;3.55;3.25;;;;;;;;;;5071978;28;20058;-65
2022/05/27 01:50:44;;;;;;;4.30;4.00;;;;;;;;;;5089849;28;20032;-66
2022/05/27 01:53:15;;;;;;;3.20;3.05;;;;;;;;;;5071909;28;20114;-67
2022/05/27 01:55:42;;;;;;;4.78;4.10;;;;;;;;;;5071508;28;20035;-66
2022/05/27 01:58:31;;;;;;;4.30;3.90;;;;;;;;;;5071799;28;20032;-65
2022/05/27 02:00:57;;;;;;;2.90;2.70;;;;;;;;;;5078387;28;20551;-65
2022/05/27 02:03:55;;;;;;;3.42;3.22;;;;;;;;;;5089649;28;20227;-67
2022/05/27 02:06:26;;;;;;;3.28;3.08;;;;;;;;;;5044548;28;20048;-67
2022/05/27 02:08:53;;;;;;;4.20;3.90;;;;;;;;;;5054675;28;20039;-66
2022/05/27 02:11:20;;;;;;;3.53;3.33;;;;;;;;;;5089505;28;20039;-65
2022/05/27 02:13:46;;;;;;;2.35;2.25;;;;;;;;;;5089456;28;20028;-65
2022/05/27 02:16:13;;;;;;;3.10;2.92;;;;;;;;;;5089514;28;20085;-66
2022/05/27 02:18:58;;;;;;;3.25;3.05;;;;;;;;;;5089600;28;20090;-68
2022/05/27 02:21:25;;;;;;;2.88;2.67;;;;;;;;;;5071519;28;20130;-66
2022/05/27 02:23:52;;;;;;;2.72;2.55;;;;;;;;;;5071483;28;20427;-66
2022/05/27 02:26:20;;;;;;;3.35;3.15;;;;;;;;;;5089406;28;20113;-65
2022/05/27 02:28:46;;;;;;;3.40;3.20;;;;;;;;;;5071231;28;20036;-65
2022/05/27 02:31:17;;;;;;;3.85;3.38;;;;;;;;;;5070871;28;20081;-67
2022/05/27 02:36:36;;;;;;;4.18;3.88;;;;;;;;;;5056942;28;20419;-67
2022/05/27 02:39:02;;;;;;;3.88;3.58;;;;;;;;;;5086655;28;20040;-66
2022/05/27 02:41:35;;;;;;;3.55;3.35;;;;;;;;;;5071010;28;20105;-65
2022/05/27 02:44:11;;;;;;;3.47;3.25;;;;;;;;;;5088959;28;20051;-65
2022/05/27 02:46:57;;;;;;;4.45;3.40;;;;;;;;;;5070904;28;20044;-65
2022/05/27 02:49:38;;;;;;;3.90;3.70;;;;;;;;;;5076291;28;20052;-66
2022/05/27 02:52:04;;;;;;;;;;;;;;;;;;5093122;28;20413;-66
2022/05/27 02:54:39;;;;;;;3.70;3.40;;;;;;;;;;5093187;28;19919;-67
2022/05/27 02:57:17;;;;;;;3.08;2.97;;;;;;;;;;5091664;28;20032;-67
2022/05/27 02:59:43;;;;;;;2.70;2.50;;;;;;;;;;5074754;28;20066;-66
2022/05/27 03:02:10;;;;;;;3.05;2.90;;;;;;;;;;5073604;28;20067;-66
2022/05/27 03:04:36;;;;;;;2.80;2.70;;;;;;;;;;5092822;28;20172;-66
2022/05/27 03:07:02;;;;;;;2.20;2.10;;;;;;;;;;5092374;28;20362;-66
2022/05/27 03:09:29;;;;;;;2.30;2.20;;;;;;;;;;5092720;28;20038;-65
2022/05/27 03:12:05;;;;;;;2.00;1.90;;;;;;;;;;5073431;28;20028;-65
2022/05/27 03:14:50;;;;;;;2.55;2.45;;;;;;;;;;5058478;28;20051;-66
2022/05/27 03:17:28;;;;;;;2.58;2.47;;;;;;;;;;5074359;28;20036;-66
2022/05/27 03:20:03;;;;;;;2.45;2.35;;;;;;;;;;5092171;28;20523;-65
2022/05/27 03:22:41;;;;;;;2.95;2.67;;;;;;;;;;5057966;28;20031;-65
2022/05/27 03:25:10;;;;;;;2.78;2.67;;;;;;;;;;5092385;28;20527;-66
2022/05/27 03:27:39;;;;;;;2.90;2.70;;;;;;;;;;5092307;28;20534;-66
2022/05/27 03:30:16;;;;;;;3.50;3.30;;;;;;;;;;5074294;28;20056;-64
2022/05/27 03:32:47;;;;;;;5.15;3.00;;;;;;;;;;5092349;28;20134;-66
2022/05/27 03:35:13;;;;;;;4.05;3.10;;;;;;;;;;5088352;28;20056;-66
2022/05/27 03:37:49;;;;;;;2.53;2.35;;;;;;;;;;5072001;28;20534;-65
2022/05/27 03:40:29;;;;;;;3.42;2.60;;;;;;;;;;5066683;28;20036;-66
2022/05/27 03:42:55;;;;;;;3.10;2.90;;;;;;;;;;5073886;28;20036;-66
2022/05/27 03:45:21;;;;;;;3.05;2.95;;;;;;;;;;5088942;28;20116;-66
2022/05/27 03:47:52;;;;;;;3.00;2.90;;;;;;;;;;5092122;28;20036;-66
2022/05/27 03:50:27;;;;;;;3.17;2.97;;;;;;;;;;5073816;28;20062;-66
2022/05/27 03:52:54;;;;;;;3.00;2.80;;;;;;;;;;5091893;28;20028;-66
2022/05/27 03:55:21;;;;;;;2.35;2.25;;;;;;;;;;5091889;28;20036;-66
2022/05/27 03:57:50;;;;;;;3.22;2.83;;;;;;;;;;5091913;28;20412;-66
2022/05/27 04:00:16;;;;;;;2.65;2.45;;;;;;;;;;5080209;28;20039;-65
2022/05/27 04:02:42;;;;;;;2.60;2.50;;;;;;;;;;5090087;28;20418;-66
2022/05/27 04:05:15;;;;;;;2.45;2.35;;;;;;;;;;5091956;28;20605;-66
2022/05/27 04:07:40;;;;;;;2.45;2.22;;;;;;;;;;5089965;28;20028;-66
2022/05/27 04:10:08;;;;;;;2.60;2.40;;;;;;;;;;5073757;28;20031;-66
2022/05/27 04:12:34;;;;;;;2.83;2.67;;;;;;;;;;5091612;28;20040;-66
2022/05/27 04:15:00;;;;;;;3.40;2.75;;;;;;;;;;5091620;28;20380;-66
2022/05/27 04:17:32;;;;;;;3.00;2.80;;;;;;;;;;5091907;28;20555;-66
2022/05/27 04:19:58;;;;;;;2.55;2.45;;;;;;;;;;5068374;28;20050;-66
2022/05/27 04:22:24;;;;;;;2.70;2.60;;;;;;;;;;5080093;28;20455;-66
2022/05/27 04:24:50;;;;;;;2.50;2.30;;;;;;;;;;5083515;28;20134;-66
2022/05/27 04:27:20;;;;;;;3.97;2.85;;;;;;;;;;5091510;28;20101;-66
2022/05/27 04:29:48;;;;;;;2.78;2.67;;;;;;;;;;5091873;28;20396;-67
2022/05/27 04:32:14;;;;;;;1.95;1.65;;;;;;;;;;5072103;28;20042;-67
2022/05/27 04:34:43;;;;;;;2.38;2.28;;;;;;;;;;5073241;28;20117;-66
2022/05/27 04:37:09;;;;;;;2.35;2.25;;;;;;;;;;5089765;28;20560;-67
2022/05/27 04:39:36;;;;;;;2.38;2.25;;;;;;;;;;5090836;28;20036;-67
2022/05/27 04:42:05;;;;;;;1.80;1.70;;;;;;;;;;5081953;28;20569;-66
2022/05/27 04:44:31;;;;;;;2.10;2.00;;;;;;;;;;5060989;28;20041;-67
2022/05/27 04:46:56;;;;;;;2.53;2.40;;;;;;;;;;5089711;28;20564;-66
2022/05/27 04:52:07;;;;;;;1.88;1.77;;;;;;;;;;5090350;28;20119;-67
2022/05/27 04:54:33;;;;;;;2.85;2.67;;;;;;;;;;5090988;28;20043;-67
2022/05/27 04:56:59;;;;;;;2.83;2.63;;;;;;;;;;5090260;28;20044;-66
2022/05/27 04:59:25;;;;;;;2.80;2.70;;;;;;;;;;5090735;28;20043;-68
2022/05/27 05:01:51;;;;;;;3.35;3.10;;;;;;;;;;5087024;28;20032;-67
2022/05/27 05:04:16;;;;;;;3.05;2.50;;;;;;;;;;5080952;28;20025;-67
2022/05/27 05:06:42;;;;;;;2.70;2.60;;;;;;;;;;5085712;28;20063;-67
2022/05/27 05:09:08;;;;;;;2.78;2.67;;;;;;;;;;5055553;28;20032;-67
2022/05/27 05:11:34;;;;;;;2.88;2.70;;;;;;;;;;5089817;28;20032;-68
2022/05/27 05:14:00;;;;;;;3.20;3.00;;;;;;;;;;5089456;28;20496;-67
2022/05/27 05:16:26;;;;;;;2.53;2.42;;;;;;;;;;5089750;28;20036;-68
2022/05/27 05:18:52;;;;;;;2.97;2.78;;;;;;;;;;5088877;28;20597;-68
2022/05/27 05:21:18;;;;;;;3.20;3.00;;;;;;;;;;5087958;28;20031;-67
2022/05/27 05:23:44;;;;;;;3.63;3.33;;;;;;;;;;5089397;28;20058;-69
2022/05/27 05:26:10;;;;;;;3.80;3.42;;;;;;;;;;5071781;28;20119;-67
2022/05/27 05:28:36;;;;;;;3.90;3.53;;;;;;;;;;5090133;28;20032;-68
2022/05/27 05:31:02;;;;;;;5.38;4.75;;;;;;;;;;5089872;28;20088;-67
2022/05/27 05:33:28;;;;;;;3.72;3.53;;;;;;;;;;5089901;28;20032;-68
2022/05/27 05:35:54;;;;;;;3.20;3.00;;;;;;;;;;5089600;28;20074;-66
2022/05/27 05:38:20;;;;;;;2.50;2.40;;;;;;;;;;5089861;28;20064;-67
2022/05/27 05:40:46;;;;;;;2.90;2.80;;;;;;;;;;5088983;28;20132;-67
2022/05/27 05:43:13;;;;;;;3.25;2.90;;;;;;;;;;5088845;28;20032;-68
2022/05/27 05:45:39;;;;;;;1.85;1.83;;;;;;;;;;5081900;28;20044;-69
2022/05/27 05:48:05;;;;;;;2.75;2.65;;;;;;;;;;5082589;28;20162;-70
2022/05/27 05:50:33;;;;;;;3.10;2.85;;;;;;;;;;5078535;28;20032;-72
2022/05/27 05:52:59;;;;;;;3.13;3.00;;;;;;;;;;5096827;28;20138;-70
2022/05/27 05:55:25;;;;;;;2.78;2.65;;;;;;;;;;5087581;28;20027;-71
2022/05/27 05:57:51;;;;;;;2.83;2.58;;;;;;;;;;5098495;28;20044;-71
2022/05/27 06:00:23;;;;;;;2.63;2.53;;;;;;;;;;5096825;28;20173;-71
2022/05/27 06:02:48;;;;;;;2.50;2.40;;;;;;;;;;5082633;28;20050;-72
2022/05/27 06:05:14;;;;;;;3.05;2.90;;;;;;;;;;5088212;28;20396;-73
2022/05/27 06:07:40;;;;;;;3.45;3.25;;;;;;;;;;5094330;28;20115;-72
2022/05/27 06:10:07;;;;;;;2.60;2.50;;;;;;;;;;5097279;28;20074;-71
2022/05/27 06:12:33;;;;;;;3.17;2.97;;;;;;;;;;5086491;28;20271;-71
2022/05/27 06:14:59;;;;;;;3.63;3.33;;;;;;;;;;5098228;28;20415;-72
2022/05/27 06:17:33;;;;;;;3.75;3.45;;;;;;;;;;5096472;28;20031;-71
2022/05/27 06:19:59;;;;;;;3.75;3.38;;;;;;;;;;5097107;28;20032;-71
2022/05/27 06:22:25;;;;;;;3.67;3.47;;;;;;;;;;5096284;28;20113;-71
2022/05/27 06:24:52;;;;;;;3.15;3.05;;;;;;;;;;5080743;28;20503;-70
2022/05/27 06:27:18;;;;;;;3.60;3.40;;;;;;;;;;5106611;28;20039;-71
2022/05/27 06:35:36;;;;;;;3.53;3.33;;;;;;;;;;5087556;28;20031;-68
2022/05/27 06:38:05;;;;;;;3.22;3.05;;;;;;;;;;5100375;28;20143;-68
2022/05/27 06:40:31;;;;;;;3.97;3.63;;;;;;;;;;5092682;28;20730;-69
2022/05/27 06:42:57;;;;;;;3.38;3.17;;;;;;;;;;5097251;28;20041;-69
2022/05/27 06:45:24;;;;;;;2.92;2.72;;;;;;;;;;5086419;28;20056;-68
2022/05/27 06:47:50;;;;;;;2.60;2.28;;;;;;;;;;5085005;28;20151;-68
2022/05/27 06:50:16;;;;;;;2.72;2.60;;;;;;;;;;5096268;28;20039;-68
2022/05/27 06:52:42;;;;;;;3.55;3.25;;;;;;;;;;5085303;28;20036;-68
2022/05/27 06:55:09;;;;;;;2.67;2.53;;;;;;;;;;5101193;28;20534;-68
2022/05/27 06:57:36;;;;;;;3.88;3.67;;;;;;;;;;5090598;28;20055;-68
2022/05/27 07:00:03;;;;;;;2.53;2.33;;;;;;;;;;5097508;28;20036;-67
2022/05/27 07:02:30;;;;;;;2.35;2.25;;;;;;;;;;5098849;28;20066;-68
2022/05/27 07:04:56;;;;;;;2.50;2.30;;;;;;;;;;5088531;28;20099;-67
2022/05/27 07:07:22;;;;;;;2.55;2.40;;;;;;;;;;5089841;28;20491;-68
2022/05/27 07:09:57;;;;;;;3.00;2.80;;;;;;;;;;5086633;28;20478;-68
2022/05/27 07:12:26;;;;;;;3.50;3.20;;;;;;;;;;5094697;28;20039;-69
2022/05/27 07:14:52;;;;;;;2.60;2.50;;;;;;;;;;5099510;28;20027;-67
2022/05/27 07:17:18;;;;;;;2.42;2.33;;;;;;;;;;5100379;28;20412;-67
2022/05/27 07:19:49;;;;;;;2.35;2.25;;;;;;;;;;5099846;28;20039;-67
2022/05/27 07:22:15;;;;;;;2.25;2.15;;;;;;;;;;5100143;28;20122;-67
2022/05/27 07:24:42;;;;;;;5.47;2.70;;;;;;;;;;5098785;28;20118;-66
2022/05/27 07:27:08;;;;;;;2.85;2.30;;;;;;;;;;5099133;28;20055;-71
2022/05/27 07:29:39;;;;;;;3.80;2.72;;;;;;;;;;5090950;28;20023;-71
2022/05/27 07:32:09;;;;;;;4.25;3.10;;;;;;;;;;5089824;28;20027;-72
2022/05/27 07:34:38;;;;;;;2.90;2.80;;;;;;;;;;5101364;28;20023;-71
2022/05/27 07:37:04;;;;;;;2.72;2.53;;;;;;;;;;5098509;28;20038;-71
2022/05/27 07:39:30;;;;;;;3.28;3.03;;;;;;;;;;5100363;28;20031;-70
2022/05/27 07:41:57;;;;;;;3.83;3.53;;;;;;;;;;5099984;28;20114;-72
2022/05/27 07:44:23;;;;;;;3.50;3.20;;;;;;;;;;5092450;28;20051;-72
2022/05/27 07:46:52;;;;;;;3.88;2.97;;;;;;;;;;5089787;28;20075;-71
2022/05/27 07:49:18;;;;;;;3.17;3.00;;;;;;;;;;5099253;28;20710;-71
2022/05/27 07:51:49;;;;;;;4.15;3.72;;;;;;;;;;5100433;28;20587;-71
2022/05/27 07:54:21;;;;;;;10.02;6.25;;;;;;;;;;5098581;28;20043;-72
2022/05/27 07:57:23;;;;;;;11.10;8.32;;;;;;;;;;5101227;28;20074;-72
2022/05/27 07:59:35;;;;;;;11.13;7.25;;;;;;;;;;5083752;28;20123;-71
2022/05/27 08:02:01;;;;;;;10.05;9.25;;;;;;;;;;5105106;28;20081;-70
2022/05/27 08:04:27;;;;;;;9.00;8.20;;;;;;;;;;5100928;28;20036;-71
2022/05/27 08:06:53;;;;;;;12.60;8.10;;;;;;;;;;5100155;28;20827;-71
2022/05/27 08:09:19;;;;;;;16.02;7.15;;;;;;;;;;5098057;28;20036;-70
2022/05/27 08:11:45;;;;;;;6.47;5.63;;;;;;;;;;5089251;28;20595;-71
2022/05/27 08:14:11;;;;;;;5.80;3.83;;;;;;;;;;5091456;28;20115;-70
2022/05/27 08:16:39;;;;;;;7.20;4.18;;;;;;;;;;5100175;28;20036;-70
2022/05/27 08:19:05;;;;;;;2.88;2.67;;;;;;;;;;5087876;28;20028;-72
2022/05/27 08:21:36;;;;;;;1.70;1.70;;;;;;;;;;5107004;28;20036;-71
2022/05/27 08:24:02;;;;;;;3.60;2.70;;;;;;;;;;5093758;28;20039;-71
2022/05/27 08:26:28;;;;;;;2.00;1.90;;;;;;;;;;5088944;28;20031;-72
2022/05/27 08:28:54;;;;;;;2.88;2.40;;;;;;;;;;5108216;28;20418;-72
2022/05/27 08:31:23;;;;;;;2.22;2.13;;;;;;;;;;5089631;28;20036;-71
2022/05/27 08:39:20;;;;;;;8.02;2.58;;;;;;;;;;5098824;28;20054;-70
2022/05/27 08:42:05;;;;;;;4.65;2.50;;;;;;;;;;5099359;28;20492;-73
2022/05/27 08:44:37;;;;;;;2.50;2.40;;;;;;;;;;5085343;28;20197;-72
2022/05/27 08:47:06;;;;;;;2.63;2.50;;;;;;;;;;5089987;28;20070;-71
2022/05/27 08:49:42;;;;;;;1.92;1.83;;;;;;;;;;5099695;28;20047;-71
2022/05/27 08:52:15;;;;;;;2.78;2.67;;;;;;;;;;5082190;28;20517;-71
2022/05/27 08:54:43;;;;;;;2.30;2.20;;;;;;;;;;5086228;28;20038;-72
2022/05/27 09:00:14;;;;;;;2.50;2.40;;;;;;;;;;5076643;28;20031;-71
2022/05/27 09:02:46;;;;;;;2.38;2.17;;;;;;;;;;5076744;28;20523;-72
2022/05/27 09:05:27;;;;;;;3.08;2.70;;;;;;;;;;5087790;28;20035;-71
2022/05/27 09:08:04;;;;;;;7.20;2.40;;;;;;;;;;5072290;28;20039;-72
2022/05/27 09:10:30;;;;;;;2.25;2.05;;;;;;;;;;5100209;28;20163;-72
2022/05/27 09:13:08;;;;;;;2.35;2.15;;;;;;;;;;5099409;28;20035;-71
2022/05/27 09:15:57;;;;;;;2.33;2.22;;;;;;;;;;5071970;28;20049;-72
2022/05/27 09:18:25;;;;;;;2.22;2.13;;;;;;;;;;5090218;28;20048;-72
2022/05/27 09:21:12;;;;;;;2.75;2.47;;;;;;;;;;5098205;28;20035;-73
2022/05/27 09:23:38;;;;;;;2.63;2.53;;;;;;;;;;5049839;28;20057;-72
2022/05/27 09:26:17;;;;;;;2.78;2.55;;;;;;;;;;5096349;28;20126;-73
2022/05/27 09:29:18;;;;;;;2.42;2.22;;;;;;;;;;5073790;28;20042;-71
2022/05/27 09:31:49;;;;;;;2.35;2.25;;;;;;;;;;5051825;28;20504;-71
2022/05/27 09:34:15;;;;;;;2.20;2.10;;;;;;;;;;5088054;28;20368;-70
2022/05/27 09:36:47;;;;;;;2.88;2.67;;;;;;;;;;5070298;28;20225;-68
2022/05/27 09:39:14;;;;;;;2.20;2.10;;;;;;;;;;5095992;28;20061;-70
2022/05/27 09:41:43;;;;;;;2.83;2.60;;;;;;;;;;5104781;28;20028;-72
2022/05/27 09:44:18;;;;;;;2.78;2.63;;;;;;;;;;5099370;28;20057;-71
2022/05/27 09:46:44;;;;;;;6.00;2.15;;;;;;;;;;5096876;28;20537;-70
2022/05/27 09:49:11;;;;;;;5.90;2.53;;;;;;;;;;5096436;28;20028;-70
2022/05/27 09:51:37;;;;;;;3.60;2.85;;;;;;;;;;5081831;28;20036;-71
2022/05/27 09:54:17;;;;;;;2.80;2.60;;;;;;;;;;5100574;28;20035;-70
2022/05/27 09:56:54;;;;;;;3.35;2.72;;;;;;;;;;5098829;28;20042;-73
2022/05/27 09:59:20;;;;;;;2.40;2.30;;;;;;;;;;5080145;28;20036;-73
2022/05/27 10:01:46;;;;;;;2.25;2.15;;;;;;;;;;5096665;28;20109;-72
2022/05/27 10:04:12;;;;;;;3.17;2.80;;;;;;;;;;5098253;28;20473;-74
2022/05/27 10:06:38;;;;;;;3.40;3.10;;;;;;;;;;5088455;28;20044;-72
2022/05/27 10:09:05;;;;;;;1.90;1.90;;;;;;;;;;5098313;28;20040;-72
2022/05/27 10:11:32;;;;;;;3.05;2.40;;;;;;;;;;5088261;28;20032;-73
2022/05/27 10:14:16;;;;;;;2.60;2.50;;;;;;;;;;5079835;28;20060;-71
2022/05/27 10:16:57;;;;;;;2.58;2.47;;;;;;;;;;5097804;28;20114;-72
2022/05/27 10:19:24;;;;;;;2.30;2.20;;;;;;;;;;5082149;28;20046;-71
2022/05/27 10:21:53;;;;;;;2.47;2.30;;;;;;;;;;5072448;28;20027;-72
2022/05/27 10:24:26;;;;;;;2.10;2.00;;;;;;;;;;5096999;28;20036;-72
2022/05/27 10:27:00;;;;;;;1.90;1.80;;;;;;;;;;5063609;28;20304;-72
2022/05/27 10:29:26;;;;;;;2.00;1.90;;;;;;;;;;5098256;28;20477;-73
2022/05/27 10:31:53;;;;;;;4.78;2.78;;;;;;;;;;5097963;28;20036;-72
2022/05/27 10:34:37;;;;;;;2.42;2.05;;;;;;;;;;5097357;28;20169;-72
2022/05/27 10:37:10;;;;;;;1.95;1.85;;;;;;;;;;5098020;28;20028;-73
2022/05/27 10:39:39;;;;;;;2.30;2.08;;;;;;;;;;5087565;28;20043;-72
2022/05/27 10:42:08;;;;;;;2.10;2.00;;;;;;;;;;5097194;28;20032;-72
2022/05/27 10:44:49;;;;;;;5.88;1.60;;;;;;;;;;5087720;28;20104;-71
2022/05/27 10:47:21;;;;;;;2.00;1.90;;;;;;;;;;5093661;28;20040;-71
2022/05/27 10:49:53;;;;;;;1.90;1.80;;;;;;;;;;5097730;28;20487;-71
2022/05/27 10:52:37;;;;;;;2.33;1.50;;;;;;;;;;5096767;28;20034;-70
2022/05/27 10:55:15;;;;;;;2.10;2.00;;;;;;;;;;5095118;28;20044;-70
2022/05/27 11:03:31;;;;;;;2.20;2.10;;;;;;;;;;5099231;28;20032;-72
2022/05/27 11:06:05;;;;;;;1.95;1.90;;;;;;;;;;5097976;28;20052;-72
2022/05/27 11:08:33;;;;;;;2.10;2.00;;;;;;;;;;5093502;28;20522;-72
2022/05/27 11:11:05;;;;;;;2.28;1.95;;;;;;;;;;5088300;28;20039;-71
2022/05/27 11:16:35;;;;;;;5.90;2.53;;;;;;;;;;5083616;28;20028;-70
2022/05/27 11:19:04;;;;;;;1.80;1.55;;;;;;;;;;5082109;28;20031;-70
2022/05/27 11:21:36;;;;;;;2.05;1.95;;;;;;;;;;5099898;28;20028;-71
2022/05/27 11:24:05;;;;;;;2.53;1.90;;;;;;;;;;5089607;28;20507;-71
2022/05/27 11:26:31;;;;;;;1.10;1.10;;;;;;;;;;5098905;28;20403;-71
2022/05/27 11:29:00;;;;;;;1.10;1.10;;;;;;;;;;5089477;28;20127;-71
2022/05/27 11:31:30;;;;;;;1.10;1.10;;;;;;;;;;5089772;28;20515;-70
2022/05/27 11:34:08;;;;;;;1.00;1.00;;;;;;;;;;5099612;28;20071;-70
2022/05/27 11:36:46;;;;;;;0.93;0.93;;;;;;;;;;5093595;28;20036;-71
2022/05/27 11:39:12;;;;;;;1.13;1.10;;;;;;;;;;5098794;28;20036;-70
2022/05/27 11:41:41;;;;;;;1.33;1.25;;;;;;;;;;5099811;28;20403;-73
2022/05/27 11:44:20;;;;;;;1.70;1.42;;;;;;;;;;5101781;28;20172;-72
2022/05/27 11:46:50;;;;;;;1.60;1.50;;;;;;;;;;5100668;28;20050;-70
2022/05/27 11:49:21;;;;;;;2.22;2.03;;;;;;;;;;5095466;28;20123;-73
2022/05/27 11:51:48;;;;;;;1.90;1.80;;;;;;;;;;5088798;28;20063;-71
2022/05/27 11:54:25;;;;;;;1.70;1.60;;;;;;;;;;5107014;28;20526;-72
2022/05/27 11:56:54;;;;;;;2.58;1.58;;;;;;;;;;5083636;28;20512;-75
2022/05/27 11:59:22;;;;;;;1.40;1.40;;;;;;;;;;5094832;28;20059;-74
2022/05/27 12:01:49;;;;;;;1.95;1.75;;;;;;;;;;5089577;28;20040;-74
2022/05/27 12:04:15;;;;;;;1.90;1.80;;;;;;;;;;5094691;28;20514;-73
2022/05/27 12:07:01;;;;;;;2.10;2.00;;;;;;;;;;5092409;28;20044;-72
2022/05/27 12:09:39;;;;;;;2.22;2.05;;;;;;;;;;5095153;28;20111;-73
2022/05/27 12:12:09;;;;;;;1.92;1.60;;;;;;;;;;5099876;28;20427;-74
2022/05/27 12:14:47;;;;;;;2.10;1.40;;;;;;;;;;5089255;28;20055;-72
2022/05/27 12:17:14;;;;;;;1.55;1.55;;;;;;;;;;5095550;28;20067;-74
2022/05/27 12:19:44;;;;;;;1.02;1.02;;;;;;;;;;5089938;28;20032;-74
2022/05/27 12:22:12;;;;;;;3.93;1.57;;;;;;;;;;5088680;28;20131;-75
2022/05/27 12:24:45;;;;;;;1.55;1.45;;;;;;;;;;5099956;28;20672;-75
2022/05/27 12:27:12;;;;;;;3.67;1.98;;;;;;;;;;5099863;28;20062;-74
2022/05/27 12:29:38;;;;;;;2.30;2.20;;;;;;;;;;5094266;28;20055;-75
2022/05/27 12:32:08;;;;;;;2.05;1.95;;;;;;;;;;5073505;28;20028;-74
2022/05/27 12:34:34;;;;;;;1.30;1.30;;;;;;;;;;5088364;28;20453;-73
2022/05/27 12:37:00;;;;;;;4.90;1.38;;;;;;;;;;5099273;28;20572;-75
2022/05/27 12:39:27;;;;;;;1.48;1.30;;;;;;;;;;5063432;28;20080;-74
2022/05/27 12:42:05;;;;;;;1.50;1.40;;;;;;;;;;5089264;28;20075;-73
2022/05/27 12:44:31;;;;;;;1.40;1.40;;;;;;;;;;5089383;28;20059;-74
2022/05/27 12:47:01;;;;;;;1.52;1.50;;;;;;;;;;5070032;28;20043;-74
2022/05/27 12:49:40;;;;;;;4.10;1.60;;;;;;;;;;5082919;28;20030;-74
2022/05/27 12:52:07;;;;;;;1.85;1.75;;;;;;;;;;5099776;28;20046;-73
2022/05/27 12:54:42;;;;;;;2.13;2.03;;;;;;;;;;5099502;28;20058;-74
2022/05/27 13:03:09;;;;;;;3.40;1.70;;;;;;;;;;5098663;28;20036;-74
2022/05/27 13:05:53;;;;;;;1.38;1.23;;;;;;;;;;5099586;28;20039;-73
2022/05/27 13:08:19;;;;;;;1.13;1.13;;;;;;;;;;5098773;28;20390;-74
2022/05/27 13:10:46;;;;;;;2.38;1.42;;;;;;;;;;5099657;28;20104;-74
2022/05/27 13:13:12;;;;;;;3.83;1.77;;;;;;;;;;5098050;28;20418;-74
2022/05/27 13:15:44;;;;;;;1.90;1.80;;;;;;;;;;5086303;28;20115;-73
2022/05/27 13:18:18;;;;;;;2.67;1.75;;;;;;;;;;5079598;28;20028;-75
2022/05/27 13:20:50;;;;;;;1.90;1.80;;;;;;;;;;5069341;28;20028;-74
2022/05/27 13:23:16;;;;;;;3.80;2.00;;;;;;;;;;5091350;28;20027;-73
2022/05/27 13:25:43;;;;;;;1.85;1.67;;;;;;;;;;5092910;28;20039;-74
2022/05/27 13:28:09;;;;;;;1.60;1.50;;;;;;;;;;5087756;28;20352;-74
2022/05/27 13:30:54;;;;;;;2.30;2.00;;;;;;;;;;5091070;28;20028;-74
2022/05/27 13:33:25;;;;;;;1.90;1.55;;;;;;;;;;5108745;28;20089;-74
2022/05/27 13:35:52;;;;;;;1.30;1.30;;;;;;;;;;5099884;28;20086;-75
2022/05/27 13:38:19;;;;;;;1.58;1.33;;;;;;;;;;5094406;28;20039;-75
2022/05/27 13:40:45;;;;;;;1.55;1.38;;;;;;;;;;5096515;28;20032;-76
2022/05/27 13:43:11;;;;;;;1.30;1.30;;;;;;;;;;5087505;28;20054;-75
2022/05/27 13:45:56;;;;;;;1.25;1.15;;;;;;;;;;5095538;28;20055;-75
2022/05/27 13:48:31;;;;;;;1.58;1.48;;;;;;;;;;5096183;28;20035;-75
2022/05/27 13:51:11;;;;;;;1.70;1.60;;;;;;;;;;5084384;28;20032;-76
2022/05/27 13:53:37;;;;;;;1.87;1.77;;;;;;;;;;5098182;28;20038;-74
2022/05/27 13:56:15;;;;;;;2.65;1.55;;;;;;;;;;5098616;28;20028;-76
2022/05/27 13:58:47;;;;;;;1.90;1.80;;;;;;;;;;5090443;28;20043;-75
2022/05/27 14:01:12;;;;;;;1.75;1.70;;;;;;;;;;5088872;28;20511;-76
2022/05/27 14:03:47;;;;;;;2.10;1.48;;;;;;;;;;5098494;28;20035;-75
2022/05/27 14:06:12;;;;;;;2.80;1.52;;;;;;;;;;5095562;28;20071;-75
2022/05/27 14:08:41;;;;;;;1.42;1.33;;;;;;;;;;5088303;28;20038;-75
2022/05/27 14:11:17;;;;;;;0.90;0.90;;;;;;;;;;5096413;28;20036;-74
2022/05/27 14:13:54;;;;;;;4.30;1.00;;;;;;;;;;5079339;28;20146;-75
2022/05/27 14:16:41;;;;;;;2.90;1.20;;;;;;;;;;5088060;28;20028;-76
2022/05/27 14:19:11;;;;;;;2.75;1.20;;;;;;;;;;5084194;28;20032;-75
2022/05/27 14:24:29;;;;;;;0.90;0.90;;;;;;;;;;5092501;28;20036;-75
2022/05/27 14:26:57;;;;;;;2.72;1.10;;;;;;;;;;5104490;28;20835;-74
2022/05/27 14:29:23;;;;;;;0.90;0.90;;;;;;;;;;5088859;28;20097;-74
2022/05/27 14:31:49;;;;;;;1.25;1.10;;;;;;;;;;5098343;28;20023;-74
2022/05/27 14:34:16;;;;;;;2.17;0.95;;;;;;;;;;5096408;28;20032;-74
2022/05/27 14:36:44;;;;;;;1.40;1.30;;;;;;;;;;5086954;28;20032;-74
2022/05/27 14:39:10;;;;;;;1.23;1.10;;;;;;;;;;5096662;28;20043;-74
2022/05/27 14:41:36;;;;;;;1.45;1.35;;;;;;;;;;5077949;28;20032;-75
2022/05/27 14:44:04;;;;;;;1.30;1.30;;;;;;;;;;5079287;28;20072;-75
2022/05/27 14:46:36;;;;;;;1.80;1.70;;;;;;;;;;5101183;28;20441;-75
2022/05/27 14:49:22;;;;;;;1.40;1.30;;;;;;;;;;5108177;28;20040;-76
2022/05/27 14:51:48;;;;;;;1.65;1.42;;;;;;;;;;5089965;28;20039;-75
2022/05/27 14:54:26;;;;;;;1.67;1.50;;;;;;;;;;5100699;28;20119;-75
2022/05/27 14:57:15;;;;;;;1.25;1.15;;;;;;;;;;5107919;28;20032;-75
2022/05/27 14:59:44;;;;;;;3.85;1.10;;;;;;;;;;5098588;28;20028;-74
2022/05/27 15:02:18;;;;;;;0.93;0.90;;;;;;;;;;5097472;28;20453;-75
2022/05/27 15:05:03;;;;;;;1.00;1.00;;;;;;;;;;5086306;28;20024;-73
2022/05/27 15:07:30;;;;;;;2.58;1.40;;;;;;;;;;5095035;28;20191;-73
2022/05/27 15:09:56;;;;;;;1.60;1.50;;;;;;;;;;5081819;28;20381;-73
2022/05/27 15:12:25;;;;;;;2.50;1.50;;;;;;;;;;5087639;28;20071;-72
2022/05/27 15:14:58;;;;;;;1.90;1.80;;;;;;;;;;5098623;28;20123;-72
2022/05/27 15:17:53;;;;;;;2.78;1.60;;;;;;;;;;5085631;28;20027;-73
2022/05/27 15:20:19;;;;;;;2.22;1.58;;;;;;;;;;5076313;28;20027;-73
2022/05/27 15:22:46;;;;;;;5.43;1.70;;;;;;;;;;5099668;28;20078;-72
2022/05/27 15:25:14;;;;;;;1.40;1.30;;;;;;;;;;5091554;28;20036;-72
2022/05/27 15:33:23;;;;;;;3.75;0.98;;;;;;;;;;5066038;28;20040;-76
2022/05/27 15:35:55;;;;;;;1.02;0.98;;;;;;;;;;5090331;28;20467;-76
2022/05/27 15:38:28;;;;;;;0.95;0.95;;;;;;;;;;5072321;28;20039;-76
2022/05/27 15:40:54;;;;;;;0.80;0.80;;;;;;;;;;5031648;28;20455;-75
2022/05/27 15:43:23;;;;;;;2.30;1.02;;;;;;;;;;5070921;28;20033;-75